Time,TemperatureF,DewpointF,PressureIn,WindDirection,WindDirectionDegrees,WindSpeedMPH,WindSpeedGustMPH,Humidity,HourlyPrecipIn,Conditions,Clouds,dailyrainin,SoftwareType,DateUTC
2013-10-18 00:03:00,43.5,38.1,30.03,NW,304,6.9,6.9,81,0.00,CLR,SKC,0.00,WeatherDisplay:10.37,2013-10-18 05:03:00,
2013-10-18 00:08:00,43.2,38.1,30.04,NW,321,4.6,4.6,82,0.00,CLR,SKC,0.00,WeatherDisplay:10.37,2013-10-18 05:08:00,
2013-10-18 00:13:00,42.9,37.8,30.04,NW,306,5.8,5.8,82,0.00,CLR,SKC,0.00,WeatherDisplay:10.37,2013-10-18 05:13:00,
2013-10-18 00:18:00,42.7,37.9,30.04,NW,314,6.9,6.9,83,0.00,CLR,SKC,0.00,WeatherDisplay:10.37,2013-10-18 05:18:00,
2013-10-18 00:23:00,42.5,37.7,30.04,WNW,303,4.6,4.6,83,0.00,CLR,SKC,0.00,WeatherDisplay:10.37,2013-10-18 05:23:00,
2013-10-18 00:28:00,42.3,37.8,30.04,WNW,290,5.3,5.3,84,0.00,CLR,SKC,0.00,WeatherDisplay:10.37,2013-10-18 05:28:00,
2013-10-18 00:33:00,42.0,37.5,30.04,NW,308,5.8,5.8,84,0.00,CLR,SKC,0.00,WeatherDisplay:10.37,2013-10-18 05:33:00,
2013-10-18 00:38:00,41.8,37.3,30.04,NW,321,4.6,4.6,84,0.00,CLR,SKC,0.00,WeatherDisplay:10.37,2013-10-18 05:38:00,
2013-10-18 00:43:00,41.5,37.3,30.04,NW,307,3.5,3.5,85,0.00,CLR,SKC,0.00,WeatherDisplay:10.37,2013-10-18 05:43:00,
2013-10-18 00:48:00,41.3,37.1,30.03,NW,308,4.6,4.6,85,0.00,CLR,SKC,0.00,WeatherDisplay:10.37,2013-10-18 05:48:00,
2013-10-18 00:53:00,41.1,37.2,30.03,WNW,303,3.2,3.2,86,0.00,CLR,SKC,0.00,WeatherDisplay:10.37,2013-10-18 05:53:00,
2013-10-18 00:58:00,40.8,36.9,30.03,NW,308,5.3,5.3,86,0.00,CLR,SKC,0.00,WeatherDisplay:10.37,2013-10-18 05:58:00,
2013-10-18 01:03:00,40.7,36.8,30.03,NW,311,4.6,4.6,86,0.00,,SKC,0.00,WeatherDisplay:10.37,2013-10-18 06:03:00,
2013-10-18 01:08:00,40.4,36.8,30.03,WNW,290,3.5,3.5,87,0.00,,SKC,0.00,WeatherDisplay:10.37,2013-10-18 06:08:00,
2013-10-18 01:13:00,40.3,36.7,30.03,NW,311,6.9,6.9,87,0.00,,SKC,0.00,WeatherDisplay:10.37,2013-10-18 06:13:00,
2013-10-18 01:18:00,40.6,37.0,30.04,NW,304,9.2,9.2,87,0.00,,SKC,0.00,WeatherDisplay:10.37,2013-10-18 06:18:00,
2013-10-18 01:23:00,40.7,37.1,30.04,NW,310,6.9,6.9,87,0.00,,SKC,0.00,WeatherDisplay:10.37,2013-10-18 06:23:00,
2013-10-18 01:28:00,40.8,37.2,30.04,NW,304,6.9,6.9,87,0.00,,SKC,0.00,WeatherDisplay:10.37,2013-10-18 06:28:00,
2013-10-18 01:33:00,40.8,36.9,30.04,NW,317,6.9,6.9,86,0.00,,SKC,0.00,WeatherDisplay:10.37,2013-10-18 06:33:00,
2013-10-18 01:38:00,40.9,37.0,30.04,NW,307,6.9,6.9,86,0.00,,SKC,0.00,WeatherDisplay:10.37,2013-10-18 06:38:00,
2013-10-18 01:43:00,41.0,37.1,30.04,NW,310,6.9,6.9,86,0.00,,SKC,0.00,WeatherDisplay:10.37,2013-10-18 06:43:00,
2013-10-18 01:48:00,41.0,37.1,30.04,WNW,293,5.3,5.3,86,0.00,,SKC,0.00,WeatherDisplay:10.37,2013-10-18 06:48:00,
2013-10-18 01:53:00,40.9,37.0,30.04,WNW,295,6.9,6.9,86,0.00,,SKC,0.00,WeatherDisplay:10.37,2013-10-18 06:53:00,
2013-10-18 01:58:00,40.7,36.8,30.04,WNW,297,5.3,5.3,86,0.00,,SKC,0.00,WeatherDisplay:10.37,2013-10-18 06:58:00,
2013-10-18 02:03:00,40.6,36.7,30.04,NW,319,6.9,6.9,86,0.00,,SKC,0.00,WeatherDisplay:10.37,2013-10-18 07:03:00,
2013-10-18 02:08:00,40.5,36.6,30.04,NW,307,5.8,5.8,86,0.00,,SKC,0.00,WeatherDisplay:10.37,2013-10-18 07:08:00,
2013-10-18 02:13:00,40.2,36.3,30.04,WNW,300,4.6,4.6,86,0.00,,SKC,0.00,WeatherDisplay:10.37,2013-10-18 07:13:00,
2013-10-18 02:18:00,40.0,36.2,30.04,WNW,302,4.2,4.2,86,0.00,,SKC,0.00,WeatherDisplay:10.37,2013-10-18 07:18:00,
2013-10-18 02:23:00,39.7,36.1,30.05,WNW,300,4.6,4.6,87,0.00,,SKC,0.00,WeatherDisplay:10.37,2013-10-18 07:23:00,
2013-10-18 02:28:00,39.4,35.9,30.05,WNW,296,4.6,4.6,87,0.00,,SKC,0.00,WeatherDisplay:10.37,2013-10-18 07:28:00,
2013-10-18 02:33:00,39.3,35.8,30.05,WNW,301,6.9,6.9,87,0.00,,SKC,0.00,WeatherDisplay:10.37,2013-10-18 07:33:00,
2013-10-18 02:38:00,39.2,35.7,30.05,NW,323,3.5,3.5,87,0.00,,SKC,0.00,WeatherDisplay:10.37,2013-10-18 07:38:00,
2013-10-18 02:43:00,38.9,35.4,30.05,NW,317,3.5,3.5,87,0.00,,SKC,0.00,WeatherDisplay:10.37,2013-10-18 07:43:00,
2013-10-18 02:48:00,38.8,35.3,30.05,WNW,297,3.5,3.5,87,0.00,,SKC,0.00,WeatherDisplay:10.37,2013-10-18 07:48:00,
2013-10-18 02:53:00,38.7,35.2,30.05,NW,325,3.5,3.5,87,0.00,,SKC,0.00,WeatherDisplay:10.37,2013-10-18 07:53:00,
2013-10-18 02:58:00,38.4,35.2,30.04,NNW,332,2.3,2.3,88,0.00,,SKC,0.00,WeatherDisplay:10.37,2013-10-18 07:58:00,
2013-10-18 03:03:00,38.3,35.1,30.05,NW,315,2.3,2.3,88,0.00,,SKC,0.00,WeatherDisplay:10.37,2013-10-18 08:03:00,
2013-10-18 03:08:00,38.1,34.9,30.05,WNW,303,4.6,4.6,88,0.00,,SKC,0.00,WeatherDisplay:10.37,2013-10-18 08:08:00,
2013-10-18 03:13:00,37.9,34.9,30.05,NW,306,3.5,3.5,89,0.00,,SKC,0.00,WeatherDisplay:10.37,2013-10-18 08:13:00,
2013-10-18 03:18:00,37.8,34.8,30.05,West,275,2.3,2.3,89,0.00,,SKC,0.00,WeatherDisplay:10.37,2013-10-18 08:18:00,
2013-10-18 03:23:00,37.6,34.7,30.05,NW,307,3.5,3.5,89,0.00,,SKC,0.00,WeatherDisplay:10.37,2013-10-18 08:23:00,
2013-10-18 03:28:00,37.4,34.5,30.05,WNW,301,5.8,5.8,89,0.00,,SKC,0.00,WeatherDisplay:10.37,2013-10-18 08:28:00,
2013-10-18 03:33:00,37.3,34.4,30.05,WNW,295,3.5,3.5,89,0.00,,SKC,0.00,WeatherDisplay:10.37,2013-10-18 08:33:00,
2013-10-18 03:38:00,37.1,34.4,30.05,WNW,301,3.5,3.5,90,0.00,,SKC,0.00,WeatherDisplay:10.37,2013-10-18 08:38:00,
2013-10-18 03:43:00,37.0,34.3,30.05,NW,311,2.3,2.3,90,0.00,,SKC,0.00,WeatherDisplay:10.37,2013-10-18 08:43:00,
2013-10-18 03:48:00,36.9,34.2,30.05,WNW,302,2.3,2.3,90,0.00,,SKC,0.00,WeatherDisplay:10.37,2013-10-18 08:48:00,
2013-10-18 03:53:00,36.7,34.0,30.05,WNW,300,1.2,0.0,90,0.00,,SKC,0.00,WeatherDisplay:10.37,2013-10-18 08:53:00,
2013-10-18 03:58:00,36.4,33.7,30.06,WNW,293,1.2,1.2,90,0.00,,SKC,0.00,WeatherDisplay:10.37,2013-10-18 08:58:00,
2013-10-18 04:03:00,36.3,33.6,30.06,NW,311,2.3,2.3,90,0.00,,SKC,0.00,WeatherDisplay:10.37,2013-10-18 09:03:00,
2013-10-18 04:08:00,36.2,33.5,30.06,NW,307,2.3,2.3,90,0.00,,SKC,0.00,WeatherDisplay:10.37,2013-10-18 09:08:00,
2013-10-18 04:13:00,36.2,33.5,30.05,NW,311,2.3,2.3,90,0.00,,SKC,0.00,WeatherDisplay:10.37,2013-10-18 09:13:00,
2013-10-18 04:18:00,36.1,33.5,30.05,NNW,331,2.3,2.3,90,0.00,,SKC,0.00,WeatherDisplay:10.37,2013-10-18 09:18:00,
2013-10-18 04:23:00,36.0,33.4,30.05,NNW,330,2.3,2.3,90,0.00,,SKC,0.00,WeatherDisplay:10.37,2013-10-18 09:23:00,
2013-10-18 04:28:00,35.8,33.2,30.05,NW,320,2.3,2.3,90,0.00,,SKC,0.00,WeatherDisplay:10.37,2013-10-18 09:28:00,
2013-10-18 04:34:00,35.6,33.0,30.05,NW,325,2.3,2.3,90,0.00,,SKC,0.00,WeatherDisplay:10.37,2013-10-18 09:34:00,
2013-10-18 04:39:00,35.5,33.1,30.06,WNW,302,1.2,1.2,91,0.00,,SKC,0.00,WeatherDisplay:10.37,2013-10-18 09:39:00,
2013-10-18 04:44:00,35.3,32.9,30.06,West,280,1.2,1.2,91,0.00,,SKC,0.00,WeatherDisplay:10.37,2013-10-18 09:44:00,
2013-10-18 04:49:00,35.2,32.8,30.06,NW,309,1.2,1.2,91,0.00,,SKC,0.00,WeatherDisplay:10.37,2013-10-18 09:49:00,
2013-10-18 04:54:00,35.0,32.9,30.07,SSW,207,1.2,1.2,92,0.00,,SKC,0.00,WeatherDisplay:10.37,2013-10-18 09:54:00,
2013-10-18 04:59:00,34.9,32.8,30.07,WSW,247,1.2,0.0,92,0.00,,SKC,0.00,WeatherDisplay:10.37,2013-10-18 09:59:00,
2013-10-18 05:04:00,34.7,32.6,30.07,WNW,300,1.2,1.2,92,0.00,,SKC,0.00,WeatherDisplay:10.37,2013-10-18 10:04:00,
2013-10-18 05:09:00,34.6,32.5,30.07,WNW,300,1.2,1.2,92,0.00,,SKC,0.00,WeatherDisplay:10.37,2013-10-18 10:09:00,
2013-10-18 05:14:00,34.5,32.7,30.07,West,272,0.0,0.1,93,0.00,,SKC,0.00,WeatherDisplay:10.37,2013-10-18 10:14:00,
2013-10-18 05:19:00,34.5,32.7,30.07,WNW,285,2.3,2.3,93,0.00,,SKC,0.00,WeatherDisplay:10.37,2013-10-18 10:19:00,
2013-10-18 05:24:00,34.5,32.4,30.08,WNW,293,1.1,1.1,92,0.00,,SKC,0.00,WeatherDisplay:10.37,2013-10-18 10:24:00,
2013-10-18 05:29:00,34.6,32.5,30.08,WNW,286,3.5,3.5,92,0.00,,SKC,0.00,WeatherDisplay:10.37,2013-10-18 10:29:00,
2013-10-18 05:34:00,34.6,32.5,30.08,WNW,300,3.5,3.5,92,0.00,,SKC,0.00,WeatherDisplay:10.37,2013-10-18 10:34:00,
2013-10-18 05:39:00,34.7,32.6,30.08,WNW,296,4.6,4.6,92,0.00,,SKC,0.00,WeatherDisplay:10.37,2013-10-18 10:39:00,
2013-10-18 05:44:00,34.8,32.7,30.08,WNW,298,3.5,3.5,92,0.00,,SKC,0.00,WeatherDisplay:10.37,2013-10-18 10:44:00,
2013-10-18 05:49:00,34.7,32.3,30.08,WNW,302,3.5,3.5,91,0.00,,SKC,0.00,WeatherDisplay:10.37,2013-10-18 10:49:00,
2013-10-18 05:54:00,34.8,32.4,30.08,NW,304,4.6,4.6,91,0.00,,SKC,0.00,WeatherDisplay:10.37,2013-10-18 10:54:00,
2013-10-18 05:59:00,34.8,32.4,30.08,NW,304,4.6,4.6,91,0.00,,SKC,0.00,WeatherDisplay:10.37,2013-10-18 10:59:00,
2013-10-18 06:04:00,34.8,32.4,30.08,NW,312,3.5,3.5,91,0.00,,SKC,0.00,WeatherDisplay:10.37,2013-10-18 11:04:00,
2013-10-18 06:09:00,34.6,32.2,30.08,NW,307,3.5,3.5,91,0.00,,SKC,0.00,WeatherDisplay:10.37,2013-10-18 11:09:00,
2013-10-18 06:14:00,34.5,32.1,30.07,NW,306,2.3,2.3,91,0.00,,SKC,0.00,WeatherDisplay:10.37,2013-10-18 11:14:00,
2013-10-18 06:19:00,34.4,32.0,30.08,WNW,295,1.2,1.2,91,0.00,,SKC,0.00,WeatherDisplay:10.37,2013-10-18 11:19:00,
2013-10-18 06:24:00,34.3,31.9,30.08,WNW,290,1.2,1.2,91,0.00,,SKC,0.00,WeatherDisplay:10.37,2013-10-18 11:24:00,
2013-10-18 06:29:00,34.2,31.8,30.08,WNW,303,4.2,4.2,91,0.00,,SKC,0.00,WeatherDisplay:10.37,2013-10-18 11:29:00,
2013-10-18 06:34:00,34.3,31.9,30.08,WNW,300,3.2,3.2,91,0.00,,SKC,0.00,WeatherDisplay:10.37,2013-10-18 11:34:00,
2013-10-18 06:39:00,34.5,32.1,30.08,WNW,300,3.5,3.5,91,0.00,,SKC,0.00,WeatherDisplay:10.37,2013-10-18 11:39:00,
2013-10-18 06:44:00,34.6,32.2,30.08,WNW,295,3.5,3.5,91,0.00,,SKC,0.00,WeatherDisplay:10.37,2013-10-18 11:44:00,
2013-10-18 06:49:00,34.7,32.1,30.08,NW,304,2.3,2.3,90,0.00,,SKC,0.00,WeatherDisplay:10.37,2013-10-18 11:49:00,
2013-10-18 06:54:00,34.7,32.1,30.08,West,278,2.3,2.3,90,0.00,,SKC,0.00,WeatherDisplay:10.37,2013-10-18 11:54:00,
2013-10-18 06:59:00,34.7,32.1,30.09,WNW,300,4.6,4.6,90,0.00,,SKC,0.00,WeatherDisplay:10.37,2013-10-18 11:59:00,
2013-10-18 07:04:00,34.8,32.2,30.09,WNW,300,5.8,5.8,90,0.00,,SKC,0.00,WeatherDisplay:10.37,2013-10-18 12:04:00,
2013-10-18 07:09:00,34.9,32.3,30.09,NW,304,3.5,3.5,90,0.00,,SKC,0.00,WeatherDisplay:10.37,2013-10-18 12:09:00,
2013-10-18 07:14:00,34.9,32.3,30.09,NW,318,3.5,3.5,90,0.00,,SKC,0.00,WeatherDisplay:10.37,2013-10-18 12:14:00,
2013-10-18 07:19:00,35.0,32.4,30.09,NW,308,4.6,4.6,90,0.00,,SKC,0.00,WeatherDisplay:10.37,2013-10-18 12:19:00,
2013-10-18 07:24:00,35.0,32.4,30.09,NW,304,5.8,5.8,90,0.00,,SKC,0.00,WeatherDisplay:10.37,2013-10-18 12:24:00,
2013-10-18 07:29:00,35.2,32.3,30.09,NW,306,4.6,4.6,89,0.00,,SKC,0.00,WeatherDisplay:10.37,2013-10-18 12:29:00,
2013-10-18 07:34:00,35.3,32.4,30.09,WNW,303,3.5,3.5,89,0.00,,SKC,0.00,WeatherDisplay:10.37,2013-10-18 12:34:00,
2013-10-18 07:39:00,35.3,32.4,30.09,NW,311,2.3,2.5,89,0.00,,SKC,0.00,WeatherDisplay:10.37,2013-10-18 12:39:00,
2013-10-18 07:44:00,35.3,32.4,30.09,NW,317,3.5,3.5,89,0.00,,SKC,0.00,WeatherDisplay:10.37,2013-10-18 12:44:00,
2013-10-18 07:49:00,35.4,32.5,30.08,NW,304,4.6,4.6,89,0.00,,SKC,0.00,WeatherDisplay:10.37,2013-10-18 12:49:00,
2013-10-18 07:54:00,35.3,32.4,30.09,WNW,302,3.5,3.5,89,0.00,,SKC,0.00,WeatherDisplay:10.37,2013-10-18 12:54:00,
2013-10-18 07:59:00,35.4,32.5,30.09,WNW,283,4.6,4.6,89,0.00,,SKC,0.00,WeatherDisplay:10.37,2013-10-18 12:59:00,
2013-10-18 08:04:00,35.5,32.6,30.09,NW,311,4.6,4.6,89,0.00,,SKC,0.00,WeatherDisplay:10.37,2013-10-18 13:04:00,
2013-10-18 08:09:00,35.6,32.7,30.09,WNW,303,4.2,4.2,89,0.00,,SKC,0.00,WeatherDisplay:10.37,2013-10-18 13:09:00,
2013-10-18 08:14:00,35.6,32.7,30.09,West,266,3.5,3.5,89,0.00,,SKC,0.00,WeatherDisplay:10.37,2013-10-18 13:14:00,
2013-10-18 08:19:00,35.7,32.8,30.10,WNW,285,2.3,2.3,89,0.00,,SKC,0.00,WeatherDisplay:10.37,2013-10-18 13:19:00,
2013-10-18 08:24:00,35.9,32.7,30.10,WNW,301,4.6,4.6,88,0.00,,SKC,0.00,WeatherDisplay:10.37,2013-10-18 13:24:00,
2013-10-18 08:29:00,36.0,32.8,30.10,NW,307,4.6,4.6,88,0.00,,SKC,0.00,WeatherDisplay:10.37,2013-10-18 13:29:00,
2013-10-18 08:34:00,36.1,33.2,30.10,NW,304,3.5,3.5,89,0.00,,SKC,0.00,WeatherDisplay:10.37,2013-10-18 13:34:00,
2013-10-18 08:39:00,36.2,33.0,30.10,NW,304,5.8,5.8,88,0.00,,SKC,0.00,WeatherDisplay:10.37,2013-10-18 13:39:00,
2013-10-18 08:44:00,36.4,33.2,30.11,NW,304,3.5,3.5,88,0.00,,SKC,0.00,WeatherDisplay:10.37,2013-10-18 13:44:00,
2013-10-18 08:49:00,36.6,33.4,30.11,WNW,303,3.2,3.2,88,0.00,,SKC,0.00,WeatherDisplay:10.37,2013-10-18 13:49:00,
2013-10-18 08:54:00,36.7,33.5,30.11,WNW,302,4.6,4.6,88,0.00,,SKC,0.00,WeatherDisplay:10.37,2013-10-18 13:54:00,
2013-10-18 08:59:00,36.9,33.7,30.12,WNW,295,3.0,6.0,88,0.00,,SKC,0.00,WeatherDisplay:10.37,2013-10-18 13:59:00,
2013-10-18 09:04:00,37.1,33.6,30.12,NW,304,5.3,5.3,87,0.00,,SKC,0.00,WeatherDisplay:10.37,2013-10-18 14:04:00,
2013-10-18 09:09:00,37.3,33.8,30.12,West,278,5.8,5.8,87,0.00,,SKC,0.00,WeatherDisplay:10.37,2013-10-18 14:09:00,
2013-10-18 09:14:00,37.5,33.7,30.12,West,276,6.9,6.9,86,0.00,,SKC,0.00,WeatherDisplay:10.37,2013-10-18 14:14:00,
2013-10-18 09:19:00,37.6,33.8,30.12,WNW,300,6.9,6.9,86,0.00,,SKC,0.00,WeatherDisplay:10.37,2013-10-18 14:19:00,
2013-10-18 09:24:00,37.7,33.9,30.12,WNW,295,6.9,6.9,86,0.00,,SKC,0.00,WeatherDisplay:10.37,2013-10-18 14:24:00,
2013-10-18 09:29:00,37.9,34.1,30.12,WSW,244,6.9,6.9,86,0.00,,SKC,0.00,WeatherDisplay:10.37,2013-10-18 14:29:00,
2013-10-18 09:34:00,38.2,34.1,30.12,WNW,295,5.8,5.8,85,0.00,,SKC,0.00,WeatherDisplay:10.37,2013-10-18 14:34:00,
2013-10-18 09:39:00,38.3,34.2,30.12,WNW,291,6.9,6.9,85,0.00,,SKC,0.00,WeatherDisplay:10.37,2013-10-18 14:39:00,
2013-10-18 09:44:00,38.5,34.1,30.12,WNW,300,5.8,5.8,84,0.00,,SKC,0.00,WeatherDisplay:10.37,2013-10-18 14:44:00,
2013-10-18 09:49:00,38.7,34.0,30.12,NW,308,4.6,4.6,83,0.00,,SKC,0.00,WeatherDisplay:10.37,2013-10-18 14:49:00,
2013-10-18 09:54:00,39.0,34.3,30.12,NW,320,5.8,5.8,83,0.00,,SKC,0.00,WeatherDisplay:10.37,2013-10-18 14:54:00,
2013-10-18 09:59:00,39.2,34.2,30.12,WNW,289,4.6,4.6,82,0.00,,SKC,0.00,WeatherDisplay:10.37,2013-10-18 14:59:00,
2013-10-18 10:04:00,39.4,34.1,30.12,NW,304,4.6,4.6,81,0.00,,SKC,0.00,WeatherDisplay:10.37,2013-10-18 15:04:00,
2013-10-18 10:09:00,39.6,34.2,30.12,WNW,295,6.4,6.4,81,0.00,,SKC,0.00,WeatherDisplay:10.37,2013-10-18 15:09:00,
2013-10-18 10:14:00,39.7,34.0,30.13,West,268,6.9,6.9,80,0.00,,SKC,0.00,WeatherDisplay:10.37,2013-10-18 15:14:00,
2013-10-18 10:19:00,39.9,34.5,30.13,NW,306,4.6,4.6,81,0.00,,SKC,0.00,WeatherDisplay:10.37,2013-10-18 15:19:00,
2013-10-18 10:24:00,40.1,34.1,30.13,WNW,302,5.8,5.8,79,0.00,,SKC,0.00,WeatherDisplay:10.37,2013-10-18 15:24:00,
2013-10-18 10:29:00,40.2,34.5,30.13,NW,322,5.8,5.8,80,0.00,,SKC,0.00,WeatherDisplay:10.37,2013-10-18 15:29:00,
2013-10-18 10:35:00,40.3,34.3,30.12,NW,307,5.3,5.3,79,0.00,,SKC,0.00,WeatherDisplay:10.37,2013-10-18 15:35:00,
2013-10-18 10:40:00,40.5,34.2,30.12,WNW,298,6.9,6.9,78,0.00,,SKC,0.00,WeatherDisplay:10.37,2013-10-18 15:40:00,
2013-10-18 10:45:00,40.6,34.6,30.12,WNW,297,5.3,5.3,79,0.00,,SKC,0.00,WeatherDisplay:10.37,2013-10-18 15:45:00,
2013-10-18 10:50:00,40.8,34.5,30.12,NW,317,5.8,5.8,78,0.00,,SKC,0.00,WeatherDisplay:10.37,2013-10-18 15:50:00,
2013-10-18 10:55:00,41.0,34.7,30.12,NW,311,3.5,3.5,78,0.00,,SKC,0.00,WeatherDisplay:10.37,2013-10-18 15:55:00,
2013-10-18 11:00:00,41.2,34.9,30.12,WNW,294,2.3,2.3,78,0.00,,SKC,0.00,WeatherDisplay:10.37,2013-10-18 16:00:00,
2013-10-18 11:05:00,41.3,34.3,30.12,WNW,294,6.9,6.9,76,0.00,,SKC,0.00,WeatherDisplay:10.37,2013-10-18 16:05:00,
2013-10-18 11:10:00,41.4,34.4,30.11,West,264,4.6,4.6,76,0.00,,SKC,0.00,WeatherDisplay:10.37,2013-10-18 16:10:00,
2013-10-18 11:15:00,41.6,34.6,30.11,WNW,295,6.9,6.9,76,0.00,,SKC,0.00,WeatherDisplay:10.37,2013-10-18 16:15:00,
2013-10-18 11:20:00,41.7,34.4,30.11,WNW,298,5.8,5.8,75,0.00,,SKC,0.00,WeatherDisplay:10.37,2013-10-18 16:20:00,
2013-10-18 11:25:00,42.1,34.7,30.11,NW,313,5.8,5.8,75,0.00,,SKC,0.00,WeatherDisplay:10.37,2013-10-18 16:25:00,
2013-10-18 11:30:00,42.3,34.9,30.11,NW,309,6.9,6.9,75,0.00,,SKC,0.00,WeatherDisplay:10.37,2013-10-18 16:30:00,
2013-10-18 11:35:00,42.5,34.8,30.11,NW,313,5.8,5.8,74,0.00,,SKC,0.00,WeatherDisplay:10.37,2013-10-18 16:35:00,
2013-10-18 11:40:00,42.7,35.0,30.11,WNW,302,6.9,6.9,74,0.00,,SKC,0.00,WeatherDisplay:10.37,2013-10-18 16:40:00,
2013-10-18 11:45:00,42.9,34.8,30.11,WNW,298,5.8,5.8,73,0.00,,SKC,0.00,WeatherDisplay:10.37,2013-10-18 16:45:00,
2013-10-18 11:50:00,43.0,34.9,30.11,NW,321,4.6,4.6,73,0.00,,SKC,0.00,WeatherDisplay:10.37,2013-10-18 16:50:00,
2013-10-18 11:55:00,43.2,34.4,30.11,NW,307,8.1,8.1,71,0.00,,SKC,0.00,WeatherDisplay:10.37,2013-10-18 16:55:00,
2013-10-18 12:00:00,43.3,34.9,30.11,NW,306,5.3,5.3,72,0.00,,SKC,0.00,WeatherDisplay:10.37,2013-10-18 17:00:00,
2013-10-18 12:05:00,43.3,34.5,30.11,West,261,4.6,4.6,71,0.00,,SKC,0.00,WeatherDisplay:10.37,2013-10-18 17:05:00,
2013-10-18 12:10:00,43.5,34.7,30.11,NW,310,6.9,6.9,71,0.00,,SKC,0.00,WeatherDisplay:10.37,2013-10-18 17:10:00,
2013-10-18 12:15:00,43.7,34.2,30.11,NW,317,5.8,5.8,69,0.00,,SKC,0.00,WeatherDisplay:10.37,2013-10-18 17:15:00,
2013-10-18 12:20:00,43.9,34.4,30.11,NW,309,5.8,5.8,69,0.00,,SKC,0.00,WeatherDisplay:10.37,2013-10-18 17:20:00,
2013-10-18 12:25:00,44.0,34.5,30.11,WNW,295,6.9,6.9,69,0.00,,SKC,0.00,WeatherDisplay:10.37,2013-10-18 17:25:00,
2013-10-18 12:30:00,44.1,34.9,30.12,WNW,288,3.5,3.5,70,0.00,,SKC,0.00,WeatherDisplay:10.37,2013-10-18 17:30:00,
2013-10-18 12:35:00,44.3,35.1,30.11,NW,319,6.9,6.9,70,0.00,,SKC,0.00,WeatherDisplay:10.37,2013-10-18 17:35:00,
2013-10-18 12:40:00,44.4,34.9,30.11,WNW,285,2.3,2.3,69,0.00,,SKC,0.00,WeatherDisplay:10.37,2013-10-18 17:40:00,
2013-10-18 12:45:00,44.5,34.6,30.11,WNW,298,6.9,6.9,68,0.00,,SKC,0.00,WeatherDisplay:10.37,2013-10-18 17:45:00,
2013-10-18 12:50:00,44.7,35.1,30.11,WNW,300,2.3,2.3,69,0.00,,SKC,0.00,WeatherDisplay:10.37,2013-10-18 17:50:00,
2013-10-18 12:55:00,44.9,35.0,30.11,NNW,333,4.6,4.6,68,0.00,,SKC,0.00,WeatherDisplay:10.37,2013-10-18 17:55:00,
2013-10-18 13:00:00,45.1,34.4,30.11,WNW,299,9.5,9.5,66,0.00,,SKC,0.00,WeatherDisplay:10.37,2013-10-18 18:00:00,
2013-10-18 13:05:00,45.3,34.6,30.10,NW,326,3.5,3.5,66,0.00,,SKC,0.00,WeatherDisplay:10.37,2013-10-18 18:05:00,
2013-10-18 13:10:00,45.4,35.1,30.10,NW,304,2.3,2.3,67,0.00,,SKC,0.00,WeatherDisplay:10.37,2013-10-18 18:10:00,
2013-10-18 13:15:00,45.6,34.1,30.10,NW,308,4.2,4.2,64,0.00,,SKC,0.00,WeatherDisplay:10.37,2013-10-18 18:15:00,
2013-10-18 13:20:00,45.8,34.7,30.10,WNW,297,5.8,5.8,65,0.00,,SKC,0.00,WeatherDisplay:10.37,2013-10-18 18:20:00,
2013-10-18 13:25:00,45.8,35.1,30.10,NW,314,3.5,3.5,66,0.00,,SKC,0.00,WeatherDisplay:10.37,2013-10-18 18:25:00,
2013-10-18 13:30:00,45.9,34.0,30.10,NW,312,6.9,6.9,63,0.00,,SKC,0.00,WeatherDisplay:10.37,2013-10-18 18:30:00,
2013-10-18 13:35:00,45.9,34.4,30.10,WSW,252,3.5,3.5,64,0.00,,SKC,0.00,WeatherDisplay:10.37,2013-10-18 18:35:00,
2013-10-18 13:40:00,46.1,34.2,30.09,WNW,290,5.8,5.8,63,0.00,,SKC,0.00,WeatherDisplay:10.37,2013-10-18 18:40:00,
2013-10-18 13:45:00,46.3,33.2,30.09,NW,309,4.6,4.6,60,0.00,,SKC,0.00,WeatherDisplay:10.37,2013-10-18 18:45:00,
2013-10-18 13:50:00,46.4,34.1,30.09,WNW,298,1.2,1.2,62,0.00,,SKC,0.00,WeatherDisplay:10.37,2013-10-18 18:50:00,
2013-10-18 13:55:00,46.5,34.6,30.08,WNW,301,5.8,5.8,63,0.00,,SKC,0.00,WeatherDisplay:10.37,2013-10-18 18:55:00,
2013-10-18 14:00:00,46.6,33.4,30.08,WNW,295,5.3,5.3,60,0.00,,SKC,0.00,WeatherDisplay:10.37,2013-10-18 19:00:00,
2013-10-18 14:05:00,46.7,33.1,30.08,NW,308,6.9,6.9,59,0.00,,SKC,0.00,WeatherDisplay:10.37,2013-10-18 19:05:00,
2013-10-18 14:10:00,46.8,32.8,30.08,NNW,341,5.8,5.8,58,0.00,,SKC,0.00,WeatherDisplay:10.37,2013-10-18 19:10:00,
2013-10-18 14:15:00,46.9,33.3,30.07,NW,305,3.2,3.2,59,0.00,,SKC,0.00,WeatherDisplay:10.37,2013-10-18 19:15:00,
2013-10-18 14:20:00,47.1,32.6,30.07,NW,305,4.6,4.6,57,0.00,,SKC,0.00,WeatherDisplay:10.37,2013-10-18 19:20:00,
2013-10-18 14:25:00,47.3,34.5,30.07,NNW,330,3.5,3.5,61,0.00,,SKC,0.00,WeatherDisplay:10.37,2013-10-18 19:25:00,
2013-10-18 14:30:00,47.5,33.9,30.07,WNW,300,3.5,3.5,59,0.00,,SKC,0.00,WeatherDisplay:10.37,2013-10-18 19:30:00,
2013-10-18 14:35:00,47.5,33.4,30.07,WNW,299,6.9,6.9,58,0.00,,SKC,0.00,WeatherDisplay:10.37,2013-10-18 19:35:00,
2013-10-18 14:40:00,47.5,32.1,30.07,NW,321,6.9,6.9,55,0.00,,SKC,0.00,WeatherDisplay:10.37,2013-10-18 19:40:00,
2013-10-18 14:45:00,47.5,31.2,30.06,NNW,339,3.5,3.5,53,0.00,,SKC,0.00,WeatherDisplay:10.37,2013-10-18 19:45:00,
2013-10-18 14:50:00,47.7,30.9,30.06,NW,316,6.9,6.9,52,0.00,,SKC,0.00,WeatherDisplay:10.37,2013-10-18 19:50:00,
2013-10-18 14:55:00,47.6,31.8,30.06,WNW,285,5.8,5.8,54,0.00,,SKC,0.00,WeatherDisplay:10.37,2013-10-18 19:55:00,
2013-10-18 15:00:00,47.7,31.9,30.06,NW,304,5.3,5.3,54,0.00,,SKC,0.00,WeatherDisplay:10.37,2013-10-18 20:00:00,
2013-10-18 15:05:00,48.0,31.7,30.06,NW,307,4.2,4.2,53,0.00,,SKC,0.00,WeatherDisplay:10.37,2013-10-18 20:05:00,
2013-10-18 15:10:00,48.0,31.2,30.05,NW,305,6.9,6.9,52,0.00,,SKC,0.00,WeatherDisplay:10.37,2013-10-18 20:10:00,
2013-10-18 15:15:00,48.1,32.2,30.05,WNW,297,7.4,7.4,54,0.00,,SKC,0.00,WeatherDisplay:10.37,2013-10-18 20:15:00,
2013-10-18 15:20:00,48.0,31.7,30.05,WNW,296,8.1,8.1,53,0.00,,SKC,0.00,WeatherDisplay:10.37,2013-10-18 20:20:00,
2013-10-18 15:25:00,48.1,32.7,30.05,WNW,285,5.8,5.8,55,0.00,,SKC,0.00,WeatherDisplay:10.37,2013-10-18 20:25:00,
2013-10-18 15:30:00,48.2,31.9,30.05,NW,309,5.8,5.8,53,0.00,,SKC,0.00,WeatherDisplay:10.37,2013-10-18 20:30:00,
2013-10-18 15:35:00,48.2,32.3,30.05,SW,215,8.1,8.1,54,0.00,,SKC,0.00,WeatherDisplay:10.37,2013-10-18 20:35:00,
2013-10-18 15:40:00,48.7,32.3,30.05,WNW,297,4.2,4.2,53,0.00,,SKC,0.00,WeatherDisplay:10.37,2013-10-18 20:40:00,
2013-10-18 15:45:00,48.7,32.3,30.05,WNW,301,3.5,3.5,53,0.00,,SKC,0.00,WeatherDisplay:10.37,2013-10-18 20:45:00,
2013-10-18 15:50:00,48.8,32.4,30.05,NW,309,4.6,4.6,53,0.00,,SKC,0.00,WeatherDisplay:10.37,2013-10-18 20:50:00,
2013-10-18 15:55:00,49.0,33.1,30.06,West,271,3.5,3.5,54,0.00,,SKC,0.00,WeatherDisplay:10.37,2013-10-18 20:55:00,
2013-10-18 16:00:00,48.8,31.9,30.05,West,274,8.1,8.1,52,0.00,,SKC,0.00,WeatherDisplay:10.37,2013-10-18 21:00:00,
2013-10-18 16:05:00,48.8,32.9,30.05,West,266,5.8,5.8,54,0.00,,SKC,0.00,WeatherDisplay:10.37,2013-10-18 21:05:00,
2013-10-18 16:10:00,48.9,33.0,30.06,West,259,1.2,1.2,54,0.00,,SKC,0.00,WeatherDisplay:10.37,2013-10-18 21:10:00,
2013-10-18 16:15:00,49.1,33.2,30.05,SW,231,2.3,2.3,54,0.00,,SKC,0.00,WeatherDisplay:10.37,2013-10-18 21:15:00,
2013-10-18 16:20:00,49.1,32.7,30.05,WSW,243,1.2,1.2,53,0.00,,SKC,0.00,WeatherDisplay:10.37,2013-10-18 21:20:00,
2013-10-18 16:25:00,49.1,32.2,30.05,WSW,258,3.5,3.5,52,0.00,,SKC,0.00,WeatherDisplay:10.37,2013-10-18 21:25:00,
2013-10-18 16:30:00,49.0,32.1,30.05,NW,311,2.3,2.3,52,0.00,,SKC,0.00,WeatherDisplay:10.37,2013-10-18 21:30:00,
2013-10-18 16:35:00,48.9,30.6,30.05,WSW,249,4.6,4.6,49,0.00,,SKC,0.00,WeatherDisplay:10.37,2013-10-18 21:35:00,
2013-10-18 16:40:00,48.9,29.5,30.05,WNW,301,4.6,4.6,47,0.00,,SKC,0.00,WeatherDisplay:10.37,2013-10-18 21:40:00,
2013-10-18 16:45:00,48.9,30.6,30.06,West,269,5.3,5.3,49,0.00,,SKC,0.00,WeatherDisplay:10.37,2013-10-18 21:45:00,
2013-10-18 16:50:00,48.8,31.5,30.05,NW,309,3.5,3.5,51,0.00,,SKC,0.00,WeatherDisplay:10.37,2013-10-18 21:50:00,
2013-10-18 16:55:00,48.7,30.9,30.05,WNW,293,6.9,6.9,50,0.00,,SKC,0.00,WeatherDisplay:10.37,2013-10-18 21:55:00,
2013-10-18 17:00:00,48.5,30.7,30.05,West,279,3.5,3.5,50,0.00,,SKC,0.00,WeatherDisplay:10.37,2013-10-18 22:00:00,
2013-10-18 17:05:00,48.4,30.6,30.05,WNW,295,6.9,6.9,50,0.00,,SKC,0.00,WeatherDisplay:10.37,2013-10-18 22:05:00,
2013-10-18 17:10:00,48.4,31.1,30.05,WSW,244,2.3,2.3,51,0.00,,SKC,0.00,WeatherDisplay:10.37,2013-10-18 22:10:00,
2013-10-18 17:15:00,48.5,31.2,30.05,WSW,253,2.3,2.3,51,0.00,,SKC,0.00,WeatherDisplay:10.37,2013-10-18 22:15:00,
2013-10-18 17:20:00,48.4,30.6,30.05,WNW,283,4.6,4.6,50,0.00,,SKC,0.00,WeatherDisplay:10.37,2013-10-18 22:20:00,
2013-10-18 17:25:00,48.3,31.0,30.05,West,267,4.6,4.6,51,0.00,,SKC,0.00,WeatherDisplay:10.37,2013-10-18 22:25:00,
2013-10-18 17:30:00,48.1,30.8,30.05,WSW,258,4.6,4.6,51,0.00,,SKC,0.00,WeatherDisplay:10.37,2013-10-18 22:30:00,
2013-10-18 17:35:00,48.0,30.7,30.05,West,274,4.6,4.6,51,0.00,,SKC,0.00,WeatherDisplay:10.37,2013-10-18 22:35:00,
2013-10-18 17:40:00,47.9,31.1,30.05,West,281,3.5,3.5,52,0.00,,SKC,0.00,WeatherDisplay:10.37,2013-10-18 22:40:00,
2013-10-18 17:46:00,47.7,31.4,30.05,West,278,2.3,2.3,53,0.00,,SKC,0.00,WeatherDisplay:10.37,2013-10-18 22:46:00,
2013-10-18 17:51:00,47.6,30.8,30.05,West,263,4.6,4.6,52,0.00,,SKC,0.00,WeatherDisplay:10.37,2013-10-18 22:51:00,
2013-10-18 17:56:00,47.6,30.8,30.05,WSW,238,1.2,1.2,52,0.00,,SKC,0.00,WeatherDisplay:10.37,2013-10-18 22:56:00,
2013-10-18 18:01:00,48.3,31.5,30.05,SSW,212,1.2,1.2,52,0.00,,SKC,0.00,WeatherDisplay:10.37,2013-10-18 23:01:00,
2013-10-18 18:06:00,48.9,31.1,30.04,SW,217,3.5,3.5,50,0.00,,SKC,0.00,WeatherDisplay:10.37,2013-10-18 23:06:00,
2013-10-18 18:11:00,49.1,31.2,30.04,South,184,2.3,2.3,50,0.00,,SKC,0.00,WeatherDisplay:10.37,2013-10-18 23:11:00,
2013-10-18 18:16:00,48.6,30.3,30.04,WSW,245,3.5,3.5,49,0.00,,SKC,0.00,WeatherDisplay:10.37,2013-10-18 23:16:00,
2013-10-18 18:21:00,48.1,30.8,30.04,WSW,255,1.2,1.2,51,0.00,,SKC,0.00,WeatherDisplay:10.37,2013-10-18 23:21:00,
2013-10-18 18:26:00,47.6,30.8,30.04,WSW,254,1.2,1.2,52,0.00,,SKC,0.00,WeatherDisplay:10.37,2013-10-18 23:26:00,
2013-10-18 18:31:00,47.1,30.8,30.04,SE,131,1.2,0.0,53,0.00,,SKC,0.00,WeatherDisplay:10.37,2013-10-18 23:31:00,
2013-10-18 18:36:00,46.6,30.8,30.04,WSW,239,1.2,1.2,54,0.00,,SKC,0.00,WeatherDisplay:10.37,2013-10-18 23:36:00,
2013-10-18 18:41:00,46.1,30.4,30.04,SW,221,2.3,2.3,54,0.00,,SKC,0.00,WeatherDisplay:10.37,2013-10-18 23:41:00,
2013-10-18 18:46:00,45.8,30.5,30.04,SW,230,1.2,1.2,55,0.00,,SKC,0.00,WeatherDisplay:10.37,2013-10-18 23:46:00,
2013-10-18 18:51:00,45.5,30.3,30.03,SW,231,1.2,1.2,55,0.00,,SKC,0.00,WeatherDisplay:10.37,2013-10-18 23:51:00,
2013-10-18 18:56:00,45.1,30.3,30.04,SSW,212,1.2,1.2,56,0.00,,SKC,0.00,WeatherDisplay:10.37,2013-10-18 23:56:00,
2013-10-18 19:01:00,44.7,30.4,30.04,SW,217,1.2,1.2,57,0.00,,SKC,0.00,WeatherDisplay:10.37,2013-10-19 00:01:00,
2013-10-18 19:06:00,44.4,30.5,30.03,SSW,205,1.2,0.0,58,0.00,,SKC,0.00,WeatherDisplay:10.37,2013-10-19 00:06:00,
2013-10-18 19:11:00,44.0,30.6,30.04,SW,223,0.0,0.0,59,0.00,,SKC,0.00,WeatherDisplay:10.37,2013-10-19 00:11:00,
2013-10-18 19:16:00,43.7,30.7,30.03,SSW,213,1.2,0.0,60,0.00,,SKC,0.00,WeatherDisplay:10.37,2013-10-19 00:16:00,
2013-10-18 19:21:00,43.4,30.8,30.03,SSW,212,0.0,0.0,61,0.00,,SKC,0.00,WeatherDisplay:10.37,2013-10-19 00:21:00,
2013-10-18 19:26:00,43.3,30.3,30.03,SSW,210,1.2,1.2,60,0.00,,SKC,0.00,WeatherDisplay:10.37,2013-10-19 00:26:00,
2013-10-18 19:31:00,43.3,30.3,30.03,SSW,213,3.5,3.5,60,0.00,,SKC,0.00,WeatherDisplay:10.37,2013-10-19 00:31:00,
2013-10-18 19:36:00,43.1,30.6,30.03,SW,217,2.3,2.3,61,0.00,,SKC,0.00,WeatherDisplay:10.37,2013-10-19 00:36:00,
2013-10-18 19:41:00,42.9,30.4,30.03,SW,214,1.2,1.2,61,0.00,,SKC,0.00,WeatherDisplay:10.37,2013-10-19 00:41:00,
2013-10-18 19:46:00,42.7,30.2,30.03,SW,224,1.2,1.2,61,0.00,,SKC,0.00,WeatherDisplay:10.37,2013-10-19 00:46:00,
2013-10-18 19:51:00,42.5,30.0,30.03,SSW,203,1.2,1.2,61,0.00,,SKC,0.00,WeatherDisplay:10.37,2013-10-19 00:51:00,
2013-10-18 19:56:00,42.3,30.2,30.03,West,264,1.2,1.2,62,0.00,,SKC,0.00,WeatherDisplay:10.37,2013-10-19 00:56:00,
2013-10-18 20:01:00,42.1,30.0,30.03,SW,224,2.3,2.3,62,0.00,,SKC,0.00,WeatherDisplay:10.37,2013-10-19 01:01:00,
2013-10-18 20:06:00,42.1,30.0,30.03,SW,215,1.2,1.2,62,0.00,,SKC,0.00,WeatherDisplay:10.37,2013-10-19 01:06:00,
2013-10-18 20:11:00,41.9,29.8,30.03,SW,216,0.0,0.1,62,0.00,,SKC,0.00,WeatherDisplay:10.37,2013-10-19 01:11:00,
2013-10-18 20:16:00,41.7,30.0,30.03,SSW,211,1.2,1.2,63,0.00,,SKC,0.00,WeatherDisplay:10.37,2013-10-19 01:16:00,
2013-10-18 20:21:00,41.5,29.8,30.03,South,191,3.5,3.5,63,0.00,,SKC,0.00,WeatherDisplay:10.37,2013-10-19 01:21:00,
2013-10-18 20:26:00,41.4,30.1,30.03,WSW,250,2.3,2.3,64,0.00,,SKC,0.00,WeatherDisplay:10.37,2013-10-19 01:26:00,
2013-10-18 20:31:00,41.1,29.8,30.03,SW,220,1.2,1.2,64,0.00,,SKC,0.00,WeatherDisplay:10.37,2013-10-19 01:31:00,
2013-10-18 20:36:00,40.8,29.9,30.03,SW,222,2.3,2.3,65,0.00,,SKC,0.00,WeatherDisplay:10.37,2013-10-19 01:36:00,
2013-10-18 20:41:00,40.7,29.8,30.03,SW,229,2.3,2.3,65,0.00,,SKC,0.00,WeatherDisplay:10.37,2013-10-19 01:41:00,
2013-10-18 20:46:00,40.7,29.8,30.03,SW,216,3.5,3.5,65,0.00,,SKC,0.00,WeatherDisplay:10.37,2013-10-19 01:46:00,
2013-10-18 20:51:00,40.6,29.7,30.03,SW,214,2.3,2.3,65,0.00,,SKC,0.00,WeatherDisplay:10.37,2013-10-19 01:51:00,
2013-10-18 20:56:00,40.4,29.6,30.03,SW,216,3.5,3.5,65,0.00,,SKC,0.00,WeatherDisplay:10.37,2013-10-19 01:56:00,
2013-10-18 21:01:00,40.2,29.7,30.03,WNW,285,0.0,0.0,66,0.00,,SKC,0.00,WeatherDisplay:10.37,2013-10-19 02:01:00,
2013-10-18 21:06:00,40.0,29.6,30.03,SW,218,1.2,1.2,66,0.00,,SKC,0.00,WeatherDisplay:10.37,2013-10-19 02:06:00,
2013-10-18 21:11:00,39.8,29.7,30.03,SSW,212,2.3,2.3,67,0.00,,SKC,0.00,WeatherDisplay:10.37,2013-10-19 02:11:00,
2013-10-18 21:16:00,39.6,29.5,30.03,SW,224,2.3,2.3,67,0.00,,SKC,0.00,WeatherDisplay:10.37,2013-10-19 02:16:00,
2013-10-18 21:21:00,39.5,29.8,30.03,WSW,237,3.5,3.5,68,0.00,,SKC,0.00,WeatherDisplay:10.37,2013-10-19 02:21:00,
2013-10-18 21:26:00,39.3,29.6,30.03,SW,220,3.5,3.5,68,0.00,,SKC,0.00,WeatherDisplay:10.37,2013-10-19 02:26:00,
2013-10-18 21:31:00,39.1,29.4,30.03,SW,219,2.3,2.3,68,0.00,,SKC,0.00,WeatherDisplay:10.37,2013-10-19 02:31:00,
2013-10-18 21:36:00,38.9,29.6,30.03,SSW,208,1.2,0.0,69,0.00,,SKC,0.00,WeatherDisplay:10.37,2013-10-19 02:36:00,
2013-10-18 21:41:00,38.7,29.4,30.03,SW,215,2.3,2.3,69,0.00,,SKC,0.00,WeatherDisplay:10.37,2013-10-19 02:41:00,
2013-10-18 21:46:00,38.5,29.2,30.03,SW,217,3.5,3.5,69,0.00,,SKC,0.00,WeatherDisplay:10.37,2013-10-19 02:46:00,
2013-10-18 21:51:00,38.4,29.1,30.03,SW,221,0.0,0.0,69,0.00,,SKC,0.00,WeatherDisplay:10.37,2013-10-19 02:51:00,
2013-10-18 21:56:00,38.1,29.2,30.03,SSE,167,1.2,1.2,70,0.00,,SKC,0.00,WeatherDisplay:10.37,2013-10-19 02:56:00,
2013-10-18 22:01:00,37.9,29.0,30.03,South,188,0.0,0.0,70,0.00,,SKC,0.00,WeatherDisplay:10.37,2013-10-19 03:01:00,
2013-10-18 22:06:00,37.5,28.9,30.03,SSW,198,0.0,0.0,71,0.00,,SKC,0.00,WeatherDisplay:10.37,2013-10-19 03:06:00,
2013-10-18 22:11:00,37.2,29.0,30.03,SSW,205,1.2,1.2,72,0.00,,SKC,0.00,WeatherDisplay:10.37,2013-10-19 03:11:00,
2013-10-18 22:16:00,37.0,28.8,30.03,SSE,165,0.0,0.0,72,0.00,,SKC,0.00,WeatherDisplay:10.37,2013-10-19 03:16:00,
2013-10-18 22:21:00,36.7,28.9,30.03,SSE,147,1.2,1.2,73,0.00,,SKC,0.00,WeatherDisplay:10.37,2013-10-19 03:21:00,
2013-10-18 22:33:00,36.9,29.4,30.03,SW,219,6.4,6.4,74,0.00,,SKC,0.00,WeatherDisplay:10.37,2013-10-19 03:33:00,
2013-10-18 22:38:00,37.0,29.8,30.03,SSW,211,6.4,6.4,75,0.00,,SKC,0.00,WeatherDisplay:10.37,2013-10-19 03:38:00,
2013-10-18 22:43:00,37.1,30.2,30.03,SSW,199,4.6,4.6,76,0.00,,SKC,0.00,WeatherDisplay:10.37,2013-10-19 03:43:00,
2013-10-18 22:48:00,37.0,30.5,30.03,SW,216,3.5,3.5,77,0.00,,SKC,0.00,WeatherDisplay:10.37,2013-10-19 03:48:00,
2013-10-18 22:53:00,36.8,30.9,30.02,SSE,156,5.8,5.8,79,0.00,,SKC,0.00,WeatherDisplay:10.37,2013-10-19 03:53:00,
2013-10-18 22:58:00,36.8,31.2,30.02,SSW,210,4.6,4.6,80,0.00,,SKC,0.00,WeatherDisplay:10.37,2013-10-19 03:58:00,
2013-10-18 23:01:00,36.8,31.5,30.02,SW,232,7.4,7.4,81,0.00,,SKC,0.00,WeatherDisplay:10.37,2013-10-19 04:01:00,
2013-10-18 23:02:00,36.9,31.9,30.02,WSW,255,6.9,6.9,82,0.00,,SKC,0.00,WeatherDisplay:10.37,2013-10-19 04:02:00,
2013-10-18 23:07:00,36.9,32.2,30.02,SW,226,7.4,7.4,83,0.00,,SKC,0.00,WeatherDisplay:10.37,2013-10-19 04:07:00,
2013-10-18 23:12:00,36.9,32.5,30.03,WSW,250,5.8,5.8,84,0.00,,SKC,0.00,WeatherDisplay:10.37,2013-10-19 04:12:00,
2013-10-18 23:17:00,36.9,32.5,30.02,NW,320,4.2,4.2,84,0.00,,SKC,0.00,WeatherDisplay:10.37,2013-10-19 04:17:00,
2013-10-18 23:22:00,36.9,32.8,30.02,SW,220,6.9,6.9,85,0.00,,SKC,0.00,WeatherDisplay:10.37,2013-10-19 04:22:00,
2013-10-18 23:27:00,36.7,32.6,30.02,SW,230,0.0,0.0,85,0.00,,SKC,0.00,WeatherDisplay:10.37,2013-10-19 04:27:00,
2013-10-18 23:32:00,36.6,32.8,30.02,NW,311,2.1,2.1,86,0.00,,SKC,0.00,WeatherDisplay:10.37,2013-10-19 04:32:00,
2013-10-18 23:37:00,36.5,32.7,30.02,NW,306,2.3,2.3,86,0.00,,SKC,0.00,WeatherDisplay:10.37,2013-10-19 04:37:00,
2013-10-18 23:42:00,36.4,32.6,30.02,WSW,245,1.2,0.0,86,0.00,,SKC,0.00,WeatherDisplay:10.37,2013-10-19 04:42:00,
2013-10-18 23:47:00,36.3,32.8,30.02,WNW,282,3.5,3.5,87,0.00,,SKC,0.00,WeatherDisplay:10.37,2013-10-19 04:47:00,
2013-10-18 23:52:00,36.1,32.9,30.02,WSW,244,0.0,0.0,88,0.00,,SKC,0.00,WeatherDisplay:10.37,2013-10-19 04:52:00,
2013-10-18 23:57:00,35.9,32.7,30.02,SW,233,0.0,0.0,88,0.00,,SKC,0.00,WeatherDisplay:10.37,2013-10-19 04:57:00,